Time;durP1;ratioP1;P1;durP2;ratioP2;P2;SDS_P1;SDS_P2;PMS_P1;PMS_P2;Temp;Humidity;BMP_temperature;BMP_pressure;BME280_temperature;BME280_humidity;BME280_pressure;Samples;Min_cycle;Max_cycle;Signal;HPM_P1;HPM_P2
2022/05/06 00:00:14;;;;;;;19.45;11.15;;;10.70;99.90;;;;;;4991854;28;20043;-87
2022/05/06 00:02:40;;;;;;;21.73;13.25;;;10.70;99.90;;;;;;4990307;28;20076;-88
2022/05/06 00:05:06;;;;;;;26.38;13.10;;;10.70;99.90;;;;;;4974674;28;20042;-88
2022/05/06 00:07:32;;;;;;;21.40;12.07;;;10.70;99.90;;;;;;4971961;28;20074;-88
2022/05/06 00:09:57;;;;;;;18.58;12.07;;;10.70;99.90;;;;;;4984158;28;20073;-88
2022/05/06 00:12:23;;;;;;;23.13;12.25;;;10.60;99.90;;;;;;4991027;28;20101;-88
2022/05/06 00:14:49;;;;;;;18.17;12.52;;;10.60;99.90;;;;;;4984451;28;20686;-89
2022/05/06 00:17:14;;;;;;;22.70;12.00;;;10.50;99.90;;;;;;4971161;28;20050;-88
2022/05/06 00:19:42;;;;;;;18.13;10.45;;;10.50;99.90;;;;;;4954543;28;20038;-88
2022/05/06 00:22:09;;;;;;;18.98;11.32;;;10.40;99.90;;;;;;4981072;28;20042;-89
2022/05/06 00:24:34;;;;;;;21.33;11.52;;;10.40;99.90;;;;;;4990570;28;20415;-88
2022/05/06 00:27:00;;;;;;;18.95;10.57;;;10.40;99.90;;;;;;4986666;28;20037;-88
2022/05/06 00:29:26;;;;;;;15.45;9.32;;;10.30;99.90;;;;;;4955680;28;20046;-88
2022/05/06 00:31:52;;;;;;;14.02;8.23;;;10.30;99.90;;;;;;4979047;28;20444;-88
2022/05/06 00:34:17;;;;;;;16.50;9.40;;;10.20;99.90;;;;;;4990170;28;20146;-88
2022/05/06 00:36:44;;;;;;;15.57;8.93;;;10.20;99.90;;;;;;4990318;28;20563;-88
2022/05/06 00:39:10;;;;;;;16.40;9.10;;;10.10;99.90;;;;;;4977397;28;20066;-88
2022/05/06 00:41:35;;;;;;;17.58;9.73;;;10.10;99.90;;;;;;4970805;28;20039;-89
2022/05/06 00:44:04;;;;;;;15.05;8.05;;;10.10;99.90;;;;;;4970464;28;20031;-88
2022/05/06 00:46:31;;;;;;;20.13;10.25;;;10.00;99.90;;;;;;4970878;28;20054;-88
2022/05/06 00:48:57;;;;;;;16.48;9.68;;;10.00;99.90;;;;;;4982212;28;20038;-88
2022/05/06 00:51:23;;;;;;;20.67;11.00;;;10.10;99.90;;;;;;4989198;28;20113;-88
2022/05/06 00:53:50;;;;;;;21.02;11.35;;;10.00;99.90;;;;;;4990719;28;20065;-88
2022/05/06 00:56:17;;;;;;;25.13;13.35;;;10.00;99.90;;;;;;4989812;28;20041;-88
2022/05/06 00:58:44;;;;;;;22.02;12.90;;;10.00;99.90;;;;;;4990108;28;20049;-88
2022/05/06 01:01:10;;;;;;;20.52;11.27;;;10.00;99.90;;;;;;4989505;28;20061;-88
2022/05/06 01:03:35;;;;;;;23.50;12.95;;;9.90;99.90;;;;;;4978219;28;20034;-88
2022/05/06 01:06:06;;;;;;;23.58;14.00;;;9.90;99.90;;;;;;4970697;28;20047;-88
2022/05/06 01:08:31;;;;;;;25.48;13.52;;;9.90;99.90;;;;;;4978525;28;20412;-88
2022/05/06 01:10:57;;;;;;;25.45;13.15;;;9.90;99.90;;;;;;4970655;28;20039;-88
2022/05/06 01:13:23;;;;;;;22.25;12.82;;;9.90;99.90;;;;;;4971224;28;20038;-88
2022/05/06 01:15:49;;;;;;;27.35;14.07;;;9.90;99.90;;;;;;4988936;28;20732;-88
2022/05/06 01:18:15;;;;;;;21.38;12.35;;;9.90;99.90;;;;;;4989891;28;20129;-88
2022/05/06 01:20:51;;;;;;;24.90;14.40;;;10.00;99.90;;;;;;4984197;28;20102;-88
2022/05/06 01:23:16;;;;;;;18.70;10.23;;;9.90;99.90;;;;;;4970130;28;20129;-88
2022/05/06 01:25:44;;;;;;;18.17;10.50;;;9.90;99.90;;;;;;4970912;28;20130;-88
2022/05/06 01:28:13;;;;;;;17.98;10.13;;;9.90;99.90;;;;;;4977902;28;20039;-88
2022/05/06 01:30:42;;;;;;;15.50;9.40;;;9.80;99.90;;;;;;4954667;28;20094;-88
2022/05/06 01:33:14;;;;;;;17.17;9.20;;;9.80;99.90;;;;;;4971746;28;20556;-88
2022/05/06 01:35:41;;;;;;;17.80;9.20;;;9.70;99.90;;;;;;4974774;28;20451;-88
2022/05/06 01:38:08;;;;;;;11.68;5.45;;;9.70;99.90;;;;;;4983388;28;20472;-88
2022/05/06 01:40:39;;;;;;;11.23;6.00;;;9.70;99.90;;;;;;4992502;28;20057;-88
2022/05/06 01:43:07;;;;;;;12.05;6.32;;;9.60;99.90;;;;;;4993294;28;20073;-88
2022/05/06 01:45:36;;;;;;;11.57;6.55;;;9.50;99.90;;;;;;4993243;28;20038;-87
2022/05/06 01:48:04;;;;;;;15.45;9.32;;;9.50;99.90;;;;;;4993191;28;20035;-88
2022/05/06 01:50:41;;;;;;;18.40;9.70;;;9.40;99.90;;;;;;4993256;28;20050;-88
2022/05/06 01:53:09;;;;;;;22.13;11.23;;;9.40;99.90;;;;;;4977496;28;20451;-88
2022/05/06 01:55:35;;;;;;;19.35;11.32;;;9.40;99.90;;;;;;4975095;28;20046;-88
2022/05/06 01:58:00;;;;;;;17.50;9.98;;;9.30;99.90;;;;;;4974011;28;20112;-88
2022/05/06 02:00:26;;;;;;;17.38;10.55;;;9.30;99.90;;;;;;4976322;28;20053;-88
2022/05/06 02:02:52;;;;;;;16.40;8.73;;;9.30;99.90;;;;;;4992851;28;20087;-88
2022/05/06 02:05:17;;;;;;;19.70;9.73;;;9.30;99.90;;;;;;4977368;28;20039;-88
2022/05/06 02:07:48;;;;;;;14.00;7.25;;;9.20;99.90;;;;;;4983481;28;20038;-88
2022/05/06 02:10:14;;;;;;;13.13;6.90;;;9.20;99.90;;;;;;4993511;28;20085;-88
2022/05/06 02:12:40;;;;;;;16.67;8.23;;;9.10;99.90;;;;;;4993564;28;20046;-88
2022/05/06 02:15:07;;;;;;;13.93;8.35;;;9.10;99.90;;;;;;4993121;28;20612;-88
2022/05/06 02:17:32;;;;;;;14.23;7.60;;;9.10;99.90;;;;;;4993088;28;20038;-88
2022/05/06 02:19:58;;;;;;;14.35;6.97;;;9.10;99.90;;;;;;4983824;28;20473;-88
2022/05/06 02:22:27;;;;;;;13.40;6.82;;;9.10;99.90;;;;;;4972954;28;20563;-88
2022/05/06 02:24:53;;;;;;;15.25;7.60;;;9.00;99.90;;;;;;4984643;28;20034;-88
2022/05/06 02:27:18;;;;;;;11.38;5.95;;;9.00;99.90;;;;;;4992795;28;20045;-88
2022/05/06 02:33:12;;;;;;;10.65;5.25;;;9.00;99.90;;;;;;4976127;28;20046;-88
2022/05/06 02:35:14;;;;;;;13.40;6.60;;;8.90;99.90;;;;;;4973469;28;20047;-88
2022/05/06 02:37:40;;;;;;;10.27;4.72;;;8.90;99.90;;;;;;4961227;28;20046;-88
2022/05/06 02:40:10;;;;;;;14.48;8.00;;;8.80;99.90;;;;;;4992177;28;20085;-88
2022/05/06 02:42:36;;;;;;;9.98;5.10;;;8.80;99.90;;;;;;4976062;28;20403;-88
2022/05/06 02:45:02;;;;;;;10.20;4.68;;;8.80;99.90;;;;;;4974520;28;20129;-88
2022/05/06 02:47:29;;;;;;;9.60;5.25;;;8.70;99.90;;;;;;4992662;28;20662;-89
2022/05/06 02:49:54;;;;;;;10.85;4.30;;;8.70;99.90;;;;;;4992176;28;20050;-89
2022/05/06 02:52:20;;;;;;;10.52;5.68;;;8.60;99.90;;;;;;4992683;28;20101;-88
2022/05/06 02:54:46;;;;;;;9.00;4.57;;;8.60;99.90;;;;;;4981944;28;20046;-88
2022/05/06 02:57:11;;;;;;;8.57;3.88;;;8.60;99.90;;;;;;4972960;28;20134;-88
2022/05/06 02:59:39;;;;;;;8.32;3.88;;;8.50;99.90;;;;;;4981612;28;20129;-87
2022/05/06 03:02:05;;;;;;;8.80;3.72;;;8.50;99.90;;;;;;4989647;28;20042;-88
2022/05/06 03:04:31;;;;;;;10.57;4.82;;;8.40;99.90;;;;;;4992410;28;20045;-88
2022/05/06 03:06:57;;;;;;;11.10;4.85;;;8.40;99.90;;;;;;4984000;28;20045;-88
2022/05/06 03:09:23;;;;;;;8.75;3.67;;;8.30;99.90;;;;;;4972548;28;20039;-88
2022/05/06 03:11:49;;;;;;;9.68;4.75;;;8.20;99.90;;;;;;4972784;28;20093;-88
2022/05/06 03:14:14;;;;;;;12.90;5.72;;;8.20;99.90;;;;;;4983010;28;20034;-88
2022/05/06 03:16:40;;;;;;;11.07;5.20;;;8.20;99.90;;;;;;4975828;28;20496;-88
2022/05/06 03:19:06;;;;;;;9.30;4.68;;;8.20;99.90;;;;;;4975096;28;20073;-88
2022/05/06 03:21:32;;;;;;;10.20;5.65;;;8.10;99.90;;;;;;4991335;28;20042;-88
2022/05/06 03:24:02;;;;;;;12.07;6.35;;;8.10;99.90;;;;;;4992061;28;20041;-88
2022/05/06 03:26:28;;;;;;;11.95;6.82;;;8.10;99.90;;;;;;4991447;28;20050;-87
2022/05/06 03:28:57;;;;;;;11.65;6.90;;;8.00;99.90;;;;;;4957926;28;20038;-88
2022/05/06 03:31:23;;;;;;;10.95;6.05;;;8.10;99.90;;;;;;4972540;28;20552;-88
2022/05/06 03:33:49;;;;;;;12.43;6.00;;;8.00;99.90;;;;;;4980611;28;20042;-88
2022/05/06 03:36:15;;;;;;;12.07;6.68;;;8.10;99.90;;;;;;4972400;28;20066;-88
2022/05/06 03:38:40;;;;;;;11.20;6.32;;;8.10;99.90;;;;;;4971887;28;20417;-88
2022/05/06 03:41:06;;;;;;;11.30;7.15;;;8.10;99.90;;;;;;4971204;28;20046;-88
2022/05/06 03:43:32;;;;;;;13.27;7.32;;;8.10;99.90;;;;;;4971509;28;20042;-88
2022/05/06 03:45:57;;;;;;;13.20;8.30;;;8.10;99.90;;;;;;4969516;28;20041;-89
2022/05/06 03:48:24;;;;;;;14.90;7.78;;;8.10;99.90;;;;;;4991256;28;20085;-88
2022/05/06 03:53:38;;;;;;;17.17;9.70;;;8.10;99.90;;;;;;4991904;28;20054;-88
2022/05/06 03:56:05;;;;;;;17.85;11.05;;;8.20;99.90;;;;;;4991105;28;20050;-88
2022/05/06 03:58:32;;;;;;;21.10;11.45;;;8.20;99.90;;;;;;4981987;28;20536;-88
2022/05/06 04:00:58;;;;;;;15.00;9.00;;;8.20;99.90;;;;;;4974292;28;20053;-88
2022/05/06 04:03:24;;;;;;;15.15;7.53;;;8.20;99.90;;;;;;4990739;28;20034;-88
2022/05/06 04:05:50;;;;;;;11.20;6.03;;;8.20;99.90;;;;;;4974211;28;20037;-88
2022/05/06 04:08:15;;;;;;;10.75;5.75;;;8.10;99.90;;;;;;4990824;28;20496;-88
2022/05/06 04:10:41;;;;;;;12.07;5.75;;;8.10;99.90;;;;;;4988460;28;20053;-88
2022/05/06 04:13:07;;;;;;;10.27;5.18;;;8.00;99.90;;;;;;4990981;28;20061;-87
2022/05/06 04:15:33;;;;;;;9.85;5.13;;;8.00;99.90;;;;;;4989632;28;20077;-88
2022/05/06 04:18:00;;;;;;;12.70;7.10;;;8.00;99.90;;;;;;4971261;28;20085;-88
2022/05/06 04:25:55;;;;;;;13.30;7.22;;;8.00;99.90;;;;;;4992003;28;20046;-88
2022/05/06 04:28:21;;;;;;;11.90;6.13;;;8.00;99.90;;;;;;4989842;28;20041;-88
2022/05/06 04:30:46;;;;;;;11.32;5.07;;;8.00;99.90;;;;;;4998282;28;20027;-89
2022/05/06 04:33:12;;;;;;;10.95;4.43;;;8.00;99.90;;;;;;5001738;28;20061;-89
2022/05/06 04:35:39;;;;;;;9.60;4.20;;;8.00;99.90;;;;;;5006444;28;20034;-89
2022/05/06 04:38:04;;;;;;;8.82;4.00;;;8.00;99.90;;;;;;5005461;28;20022;-88
2022/05/06 04:40:33;;;;;;;7.95;3.40;;;7.90;99.90;;;;;;5005306;28;20069;-88
2022/05/06 04:43:00;;;;;;;8.95;3.88;;;7.90;99.90;;;;;;4996651;28;20077;-88
2022/05/06 04:45:26;;;;;;;7.75;3.22;;;7.90;99.90;;;;;;4996280;28;20126;-88
2022/05/06 04:47:52;;;;;;;12.25;3.53;;;7.90;99.90;;;;;;4993561;28;20061;-88
2022/05/06 04:50:18;;;;;;;5.40;2.47;;;7.80;99.90;;;;;;4990769;28;20582;-87
2022/05/06 04:52:43;;;;;;;5.38;2.50;;;7.80;99.90;;;;;;4973638;28;20507;-88
2022/05/06 04:55:09;;;;;;;7.03;3.03;;;7.80;99.90;;;;;;4990938;28;20069;-88
2022/05/06 04:57:34;;;;;;;6.85;2.83;;;7.80;99.90;;;;;;4977270;28;20043;-88
2022/05/06 05:00:00;;;;;;;6.10;2.50;;;7.80;99.90;;;;;;4954535;28;20059;-88
2022/05/06 05:02:27;;;;;;;5.78;2.55;;;7.80;99.90;;;;;;4978792;28;20034;-88
2022/05/06 05:04:57;;;;;;;6.88;2.95;;;7.80;99.90;;;;;;4973955;28;20097;-88
2022/05/06 05:07:23;;;;;;;8.38;3.38;;;7.80;99.90;;;;;;4990842;28;20038;-88
2022/05/06 05:09:49;;;;;;;8.10;4.13;;;7.80;99.90;;;;;;4996348;28;20412;-89
2022/05/06 05:12:14;;;;;;;12.38;5.53;;;7.80;99.90;;;;;;4996951;28;20046;-88
2022/05/06 05:14:41;;;;;;;16.40;8.18;;;7.80;99.90;;;;;;4996271;28;20132;-88
2022/05/06 05:17:08;;;;;;;21.10;10.70;;;7.80;99.90;;;;;;4980168;28;20049;-88
2022/05/06 05:19:34;;;;;;;20.33;12.40;;;7.90;99.90;;;;;;4980051;28;20133;-88
2022/05/06 05:21:59;;;;;;;20.85;12.18;;;8.00;99.90;;;;;;4995967;28;20125;-88
2022/05/06 05:24:25;;;;;;;21.10;11.48;;;8.10;99.90;;;;;;4996487;28;20045;-89
2022/05/06 05:26:50;;;;;;;17.95;10.75;;;8.20;99.90;;;;;;4996075;28;20043;-88
2022/05/06 05:29:17;;;;;;;19.33;10.98;;;8.20;99.90;;;;;;4979443;28;20042;-89
2022/05/06 05:31:43;;;;;;;20.55;11.65;;;8.30;99.90;;;;;;4980328;28;20046;-88
2022/05/06 05:34:08;;;;;;;23.95;14.05;;;8.30;99.90;;;;;;4988913;28;20042;-88
2022/05/06 05:36:34;;;;;;;25.08;13.73;;;8.40;99.90;;;;;;4995536;28;20049;-88
2022/05/06 05:39:00;;;;;;;22.83;13.23;;;8.50;99.90;;;;;;4995178;28;20046;-88
2022/05/06 05:41:25;;;;;;;26.40;15.05;;;8.60;99.90;;;;;;4976341;28;20043;-89
2022/05/06 05:49:19;;;;;;;25.20;12.30;;;8.70;99.90;;;;;;4995580;28;20042;-89
2022/05/06 05:51:44;;;;;;;23.83;12.43;;;8.80;99.90;;;;;;4979698;28;20042;-89
2022/05/06 05:54:10;;;;;;;22.45;14.00;;;8.80;99.90;;;;;;4980208;28;20049;-89
2022/05/06 05:56:35;;;;;;;24.98;14.77;;;8.90;99.90;;;;;;4996231;28;20099;-89
2022/05/06 05:59:01;;;;;;;24.40;14.75;;;9.00;99.90;;;;;;4995470;28;20046;-89
2022/05/06 06:01:29;;;;;;;26.10;17.10;;;9.10;99.90;;;;;;4995765;28;20047;-90
2022/05/06 06:03:54;;;;;;;26.05;15.50;;;9.20;99.90;;;;;;4975316;28;20448;-89
2022/05/06 06:06:20;;;;;;;29.25;17.77;;;9.30;99.90;;;;;;4976953;28;20133;-89
2022/05/06 06:08:45;;;;;;;33.10;17.88;;;9.50;99.90;;;;;;4960517;28;20514;-89
2022/05/06 06:11:11;;;;;;;31.65;18.42;;;9.60;99.90;;;;;;4974009;28;20042;-89
2022/05/06 06:13:36;;;;;;;31.05;20.13;;;9.70;99.90;;;;;;4996313;28;20042;-89
2022/05/06 06:16:02;;;;;;;35.13;19.00;;;9.90;99.90;;;;;;4996774;28;20132;-89
2022/05/06 06:18:28;;;;;;;44.35;23.45;;;10.00;99.90;;;;;;4995294;28;20127;-88
2022/05/06 06:20:55;;;;;;;46.60;25.90;;;10.20;99.90;;;;;;4973863;28;20068;-88
2022/05/06 06:23:21;;;;;;;47.38;27.83;;;10.30;99.90;;;;;;4992147;28;20470;-89
2022/05/06 06:25:46;;;;;;;40.45;25.83;;;10.50;99.90;;;;;;4992947;28;20030;-89
2022/05/06 06:28:12;;;;;;;46.97;29.10;;;10.60;99.90;;;;;;4973137;28;20050;-89
2022/05/06 06:30:37;;;;;;;52.17;31.48;;;10.80;99.90;;;;;;4957184;28;20440;-89
2022/05/06 06:33:03;;;;;;;50.25;31.52;;;11.00;99.90;;;;;;4973978;28;20039;-89
2022/05/06 06:35:29;;;;;;;46.97;29.13;;;11.10;99.90;;;;;;4993291;28;20559;-89
2022/05/06 06:37:55;;;;;;;52.08;31.55;;;11.20;99.90;;;;;;4992668;28;20046;-89
2022/05/06 06:40:21;;;;;;;47.15;27.02;;;11.40;99.90;;;;;;4981901;28;20055;-89
2022/05/06 06:42:47;;;;;;;43.40;28.00;;;11.50;99.90;;;;;;4972518;28;20038;-89
2022/05/06 06:45:13;;;;;;;44.78;28.40;;;11.60;99.90;;;;;;4973319;28;20049;-89
2022/05/06 06:47:39;;;;;;;47.22;29.83;;;11.70;99.90;;;;;;4980979;28;20038;-89
2022/05/06 06:50:06;;;;;;;46.75;29.73;;;11.90;99.90;;;;;;4991963;28;20125;-89
2022/05/06 06:52:31;;;;;;;44.20;30.42;;;12.00;99.90;;;;;;4976082;28;20492;-89
2022/05/06 06:54:57;;;;;;;45.40;27.92;;;12.10;99.90;;;;;;4992743;28;20048;-89
2022/05/06 06:57:23;;;;;;;48.20;29.48;;;12.20;99.90;;;;;;4983142;28;20051;-88
2022/05/06 06:59:49;;;;;;;44.15;28.67;;;12.30;99.90;;;;;;4991777;28;20393;-88
2022/05/06 07:02:14;;;;;;;49.42;30.20;;;12.40;99.90;;;;;;4990701;28;20050;-88
2022/05/06 07:04:40;;;;;;;47.47;31.52;;;12.50;99.90;;;;;;4975165;28;20115;-89
2022/05/06 07:12:34;;;;;;;39.05;26.88;;;12.90;99.90;;;;;;4992564;28;20418;-89
2022/05/06 07:15:01;;;;;;;40.35;27.70;;;13.00;99.90;;;;;;4992417;28;20042;-89
2022/05/06 07:17:27;;;;;;;34.20;25.08;;;13.00;99.90;;;;;;4975879;28;20034;-89
2022/05/06 07:19:52;;;;;;;34.20;23.65;;;13.10;99.90;;;;;;4991117;28;20065;-89
2022/05/06 07:22:18;;;;;;;31.25;22.65;;;13.10;99.90;;;;;;4974882;28;20038;-89
2022/05/06 07:24:44;;;;;;;31.30;22.02;;;13.10;99.90;;;;;;4975180;28;20100;-89
2022/05/06 07:27:09;;;;;;;28.05;19.27;;;13.10;99.90;;;;;;4991580;28;20045;-88
2022/05/06 07:29:35;;;;;;;28.23;18.98;;;13.10;99.90;;;;;;4975308;28;20062;-89
2022/05/06 07:32:00;;;;;;;29.05;19.75;;;13.10;99.90;;;;;;4983427;28;20043;-89
2022/05/06 07:34:26;;;;;;;28.17;20.08;;;13.00;99.90;;;;;;4956678;28;20042;-88
2022/05/06 07:36:52;;;;;;;28.65;20.42;;;13.10;99.90;;;;;;4979933;28;20046;-89
2022/05/06 07:39:17;;;;;;;28.05;18.08;;;13.00;99.90;;;;;;4972401;28;20046;-89
2022/05/06 07:41:43;;;;;;;27.90;19.23;;;13.00;99.90;;;;;;4971534;28;20551;-89
2022/05/06 07:44:09;;;;;;;31.17;20.63;;;13.10;99.90;;;;;;4971369;28;20089;-89
2022/05/06 07:46:36;;;;;;;29.25;20.80;;;13.20;99.90;;;;;;4971753;28;20066;-89
2022/05/06 07:49:03;;;;;;;31.27;21.85;;;13.20;99.90;;;;;;4971434;28;20130;-89
2022/05/06 07:51:28;;;;;;;31.63;22.45;;;13.30;99.90;;;;;;4988755;28;20489;-90
2022/05/06 07:53:55;;;;;;;32.03;23.10;;;13.30;99.90;;;;;;4985382;28;20049;-89
2022/05/06 07:56:25;;;;;;;30.77;23.17;;;13.30;99.90;;;;;;4989073;28;20080;-89
2022/05/06 07:58:52;;;;;;;34.00;23.88;;;13.40;99.90;;;;;;4990822;28;20050;-89
2022/05/06 08:04:32;;;;;;;31.92;22.85;;;13.40;99.90;;;;;;4980970;28;20058;-89
2022/05/06 08:06:49;;;;;;;33.33;23.77;;;13.50;99.90;;;;;;4977252;28;20384;-89
2022/05/06 08:09:15;;;;;;;32.35;23.05;;;13.50;99.90;;;;;;4990781;28;20038;-89
2022/05/06 08:11:40;;;;;;;33.85;24.40;;;13.40;99.90;;;;;;4990385;28;20093;-89
2022/05/06 08:14:06;;;;;;;32.03;24.45;;;13.40;99.90;;;;;;4978706;28;20504;-89
2022/05/06 08:16:31;;;;;;;29.63;22.55;;;13.50;99.90;;;;;;4971842;28;20675;-89
2022/05/06 08:18:57;;;;;;;33.33;23.45;;;13.50;99.90;;;;;;4980877;28;20550;-90
2022/05/06 08:21:22;;;;;;;30.52;22.92;;;13.50;99.90;;;;;;4974360;28;20038;-90
2022/05/06 08:23:48;;;;;;;28.13;21.35;;;13.70;99.90;;;;;;4987207;28;20389;-89
2022/05/06 08:26:13;;;;;;;31.58;21.25;;;13.70;99.90;;;;;;4966654;28;20042;-90
2022/05/06 08:28:39;;;;;;;28.40;21.67;;;13.80;99.90;;;;;;4990247;28;20479;-89
2022/05/06 08:31:05;;;;;;;30.85;23.50;;;13.80;99.90;;;;;;4990070;28;20046;-90
2022/05/06 08:33:30;;;;;;;32.70;24.63;;;13.80;99.90;;;;;;4988848;28;20049;-89
2022/05/06 08:35:56;;;;;;;35.08;23.98;;;13.90;99.90;;;;;;4974890;28;20088;-90
2022/05/06 08:38:21;;;;;;;31.70;24.00;;;14.00;99.90;;;;;;4956170;28;20050;-90
2022/05/06 08:40:49;;;;;;;30.45;21.48;;;14.10;99.90;;;;;;4977320;28;20034;-90
2022/05/06 08:43:15;;;;;;;29.52;22.13;;;14.10;99.90;;;;;;4989403;28;20392;-90
2022/05/06 08:51:12;;;;;;;26.42;20.90;;;14.20;99.90;;;;;;4970722;28;20046;-90
2022/05/06 08:53:38;;;;;;;26.58;19.05;;;14.40;99.90;;;;;;4970973;28;20039;-90
2022/05/06 08:56:04;;;;;;;25.67;18.63;;;14.50;99.90;;;;;;4971022;28;20039;-90
2022/05/06 08:58:34;;;;;;;27.73;20.55;;;14.60;99.90;;;;;;4954912;28;20109;-90
2022/05/06 09:01:22;;;;;;;28.92;19.40;;;14.70;99.90;;;;;;4970087;28;20046;-90
2022/05/06 09:03:48;;;;;;;24.88;18.00;;;14.80;99.90;;;;;;4985777;28;20042;-90
2022/05/06 09:06:19;;;;;;;24.45;18.40;;;14.90;99.90;;;;;;4989915;28;20042;-90
2022/05/06 09:08:46;;;;;;;25.30;18.13;;;15.00;99.90;;;;;;4990412;28;20060;-90
2022/05/06 09:11:11;;;;;;;24.85;18.75;;;15.10;99.90;;;;;;4989081;28;20049;-90
2022/05/06 09:13:38;;;;;;;24.55;18.13;;;15.10;99.90;;;;;;4990570;28;20046;-90
2022/05/06 09:16:40;;;;;;;22.50;16.90;;;15.20;99.90;;;;;;4990907;28;20038;-90
2022/05/06 09:19:22;;;;;;;24.75;19.00;;;15.30;99.90;;;;;;4990116;28;20049;-90
2022/05/06 09:22:14;;;;;;;23.35;16.52;;;15.40;99.90;;;;;;4989134;28;20041;-90
2022/05/06 09:24:44;;;;;;;24.90;16.13;;;15.40;99.90;;;;;;4988617;28;20519;-91
2022/05/06 09:27:21;;;;;;;21.98;15.02;;;15.50;99.90;;;;;;4973557;28;20085;-91
2022/05/06 09:29:54;;;;;;;19.88;14.40;;;15.70;99.90;;;;;;4980656;28;20093;-90
2022/05/06 09:32:28;;;;;;;21.55;14.95;;;15.70;99.90;;;;;;4973960;28;20038;-90
2022/05/06 09:34:58;;;;;;;19.85;14.70;;;15.90;99.90;;;;;;4990459;28;20073;-90
2022/05/06 09:37:39;;;;;;;20.08;14.82;;;16.00;99.90;;;;;;4979892;28;20140;-90
2022/05/06 09:40:09;;;;;;;19.73;14.68;;;16.10;99.90;;;;;;4954154;28;20054;-90
2022/05/06 09:42:45;;;;;;;19.30;14.52;;;16.20;99.90;;;;;;4953589;28;20114;-90
2022/05/06 09:45:13;;;;;;;17.70;13.05;;;16.30;99.90;;;;;;4971807;28;20042;-90
2022/05/06 09:47:40;;;;;;;17.85;13.18;;;16.50;99.90;;;;;;4973584;28;20038;-90
2022/05/06 09:50:08;;;;;;;19.83;15.15;;;16.70;99.90;;;;;;4979242;28;20122;-90
2022/05/06 09:52:34;;;;;;;18.80;14.93;;;16.90;99.90;;;;;;4954438;28;20050;-90
2022/05/06 09:55:00;;;;;;;18.17;13.23;;;17.00;99.90;;;;;;4961732;28;20057;-90
2022/05/06 09:57:27;;;;;;;18.15;13.30;;;17.10;99.90;;;;;;4993812;28;20042;-90
2022/05/06 09:59:53;;;;;;;16.60;12.27;;;17.20;99.90;;;;;;4992859;28;20519;-89
2022/05/06 10:02:18;;;;;;;18.42;13.38;;;17.30;99.90;;;;;;4992336;28;20030;-90
2022/05/06 10:04:44;;;;;;;16.20;12.60;;;17.40;99.90;;;;;;4976918;28;20510;-90
2022/05/06 10:07:12;;;;;;;17.67;13.20;;;17.50;99.90;;;;;;4992401;28;20122;-89
2022/05/06 10:09:58;;;;;;;19.05;13.88;;;17.60;99.90;;;;;;4993420;28;20038;-90
2022/05/06 10:12:27;;;;;;;19.45;13.50;;;17.70;99.90;;;;;;4993209;28;20034;-90
2022/05/06 10:14:54;;;;;;;19.17;14.70;;;17.70;99.90;;;;;;4984401;28;20431;-89
2022/05/06 10:17:46;;;;;;;17.30;12.00;;;17.70;99.90;;;;;;4993345;28;20034;-89
2022/05/06 10:20:31;;;;;;;16.63;9.70;;;17.70;99.90;;;;;;4993652;28;20054;-90
2022/05/06 10:23:07;;;;;;;11.85;7.15;;;17.70;99.90;;;;;;4975876;28;20042;-90
2022/05/06 10:25:41;;;;;;;12.63;8.18;;;17.70;99.90;;;;;;4976949;28;20042;-90
2022/05/06 10:34:15;;;;;;;10.68;7.07;;;18.10;99.90;;;;;;4979426;28;20042;-90
2022/05/06 10:36:46;;;;;;;10.27;6.53;;;18.20;99.90;;;;;;4957710;28;20043;-90
2022/05/06 10:39:22;;;;;;;10.52;7.05;;;18.30;99.90;;;;;;4956595;28;20043;-90
2022/05/06 10:42:17;;;;;;;9.52;6.65;;;18.40;99.90;;;;;;4956308;28;20042;-90
2022/05/06 10:44:48;;;;;;;8.73;5.50;;;18.50;99.90;;;;;;4971806;28;20473;-90
2022/05/06 10:47:19;;;;;;;9.15;5.85;;;18.60;99.90;;;;;;4972447;28;20034;-90
2022/05/06 10:49:52;;;;;;;8.90;4.82;;;18.70;99.70;;;;;;4999881;28;20093;-90
2022/05/06 10:52:28;;;;;;;8.35;4.25;;;18.80;98.00;;;;;;5016302;28;20396;-90
2022/05/06 10:55:03;;;;;;;7.57;5.18;;;18.80;97.30;;;;;;4993313;28;20377;-90
2022/05/06 10:57:30;;;;;;;8.98;4.88;;;18.80;96.30;;;;;;4976497;28;20088;-91
2022/05/06 11:00:15;;;;;;;8.02;5.05;;;18.90;95.40;;;;;;4989947;28;20097;-91
2022/05/06 11:02:40;;;;;;;7.95;4.10;;;19.00;96.40;;;;;;4991108;28;20052;-90
2022/05/06 11:05:11;;;;;;;7.70;4.57;;;19.20;98.00;;;;;;4971713;28;20126;-90
2022/05/06 11:07:39;;;;;;;6.75;3.83;;;19.20;95.10;;;;;;4972681;28;20062;-90
2022/05/06 11:10:16;;;;;;;7.00;3.97;;;19.20;95.80;;;;;;4979590;28;20042;-90
2022/05/06 11:12:43;;;;;;;9.55;4.13;;;19.30;95.00;;;;;;4976041;28;20496;-90
2022/05/06 11:15:18;;;;;;;6.97;4.03;;;19.50;95.50;;;;;;4976328;28;20130;-90
2022/05/06 11:17:45;;;;;;;7.78;4.90;;;19.50;92.70;;;;;;4982568;28;20121;-90
2022/05/06 11:20:16;;;;;;;8.45;4.03;;;19.60;95.80;;;;;;4972517;28;20046;-90
2022/05/06 11:22:53;;;;;;;8.27;4.97;;;19.70;96.00;;;;;;4973118;28;20519;-90
2022/05/06 11:25:22;;;;;;;6.53;3.70;;;19.70;93.40;;;;;;4961416;28;20045;-91
2022/05/06 11:27:51;;;;;;;7.35;3.95;;;19.80;95.40;;;;;;4971881;28;20047;-90
2022/05/06 11:30:19;;;;;;;7.55;3.72;;;19.90;96.10;;;;;;4983457;28;20054;-91
2022/05/06 11:33:04;;;;;;;8.55;4.07;;;20.10;96.20;;;;;;4991780;28;20030;-91
2022/05/06 11:35:37;;;;;;;7.38;4.88;;;20.20;90.30;;;;;;4974630;28;20413;-91
2022/05/06 11:38:03;;;;;;;10.18;5.30;;;20.20;91.20;;;;;;4975151;28;20578;-91
2022/05/06 11:42:58;;;;;;;7.90;3.80;;;20.30;90.50;;;;;;4991401;28;20050;-91
2022/05/06 11:48:09;;;;;;;6.70;4.03;;;20.60;91.40;;;;;;4990465;28;20516;-90
2022/05/06 11:50:36;;;;;;;8.65;4.40;;;20.60;90.60;;;;;;4990989;28;20070;-90
2022/05/06 11:53:08;;;;;;;4.38;2.28;;;20.80;90.70;;;;;;4991409;28;20093;-91
2022/05/06 11:55:36;;;;;;;6.43;3.10;;;20.90;78.10;;;;;;4974697;28;20038;-91
2022/05/06 11:58:05;;;;;;;6.05;2.80;;;20.80;76.10;;;;;;4991759;28;20042;-91
2022/05/06 12:00:32;;;;;;;8.18;4.40;;;20.80;79.60;;;;;;4974285;28;20051;-91
2022/05/06 12:03:02;;;;;;;6.60;3.08;;;20.70;75.50;;;;;;4990973;28;20053;-90
2022/05/06 12:05:28;;;;;;;6.35;3.35;;;20.80;77.40;;;;;;4990671;28;20050;-91
2022/05/06 12:07:54;;;;;;;7.22;3.90;;;20.90;76.00;;;;;;4990107;28;20035;-91
2022/05/06 12:10:27;;;;;;;7.50;4.70;;;21.00;76.90;;;;;;4994468;28;20117;-91
2022/05/06 12:12:53;;;;;;;6.60;3.30;;;21.20;85.20;;;;;;4982274;28;20066;-91
2022/05/06 12:15:20;;;;;;;7.75;3.67;;;21.20;76.80;;;;;;4990919;28;20043;-91
2022/05/06 12:17:45;;;;;;;7.70;3.88;;;21.30;82.30;;;;;;4989008;28;20564;-91
2022/05/06 12:20:37;;;;;;;7.95;3.53;;;21.50;78.10;;;;;;4956598;28;20050;-91
2022/05/06 12:23:08;;;;;;;7.20;3.78;;;21.60;80.60;;;;;;4990380;28;20089;-91
2022/05/06 12:25:35;;;;;;;6.97;3.55;;;21.60;74.10;;;;;;4989537;28;20089;-91
2022/05/06 12:28:15;;;;;;;7.30;3.53;;;21.60;73.30;;;;;;4973852;28;20042;-91
2022/05/06 12:30:42;;;;;;;7.15;3.50;;;21.70;72.00;;;;;;4974206;28;20030;-91
2022/05/06 12:33:08;;;;;;;7.85;3.47;;;21.70;70.50;;;;;;4967497;28;20038;-91
2022/05/06 12:35:54;;;;;;;8.90;4.22;;;21.80;69.40;;;;;;4971518;28;20093;-92
2022/05/06 12:38:21;;;;;;;7.75;3.92;;;21.90;70.40;;;;;;4955084;28;20067;-91
2022/05/06 12:40:48;;;;;;;7.38;3.72;;;21.90;68.00;;;;;;4970382;28;20039;-91
2022/05/06 12:43:14;;;;;;;7.72;3.75;;;21.80;65.80;;;;;;4976105;28;20409;-92
2022/05/06 12:45:51;;;;;;;6.93;3.20;;;21.70;63.00;;;;;;4989974;28;20540;-91
2022/05/06 12:51:03;;;;;;;6.78;3.35;;;21.90;61.30;;;;;;4988833;28;20043;-91
2022/05/06 12:53:28;;;;;;;7.03;2.90;;;22.10;60.60;;;;;;4990125;28;20512;-91
2022/05/06 12:55:54;;;;;;;7.53;3.00;;;22.10;61.90;;;;;;4973940;28;20034;-91
2022/05/06 12:58:23;;;;;;;7.32;3.10;;;22.20;61.50;;;;;;4990074;28;20042;-91
2022/05/06 13:00:49;;;;;;;8.38;3.30;;;22.20;62.50;;;;;;4973789;28;20047;-91
2022/05/06 13:03:16;;;;;;;8.55;3.22;;;22.50;62.20;;;;;;4966439;28;20042;-91
2022/05/06 13:05:43;;;;;;;5.75;2.40;;;22.80;61.30;;;;;;4971244;28;20046;-91
2022/05/06 13:08:09;;;;;;;5.47;2.20;;;22.80;60.80;;;;;;4989958;28;20049;-91
2022/05/06 13:10:35;;;;;;;9.77;2.78;;;22.80;58.30;;;;;;4964430;28;20038;-91
2022/05/06 13:13:02;;;;;;;7.05;2.80;;;22.80;58.70;;;;;;4989907;28;20397;-91
2022/05/06 13:15:28;;;;;;;7.35;3.03;;;22.60;57.60;;;;;;4984829;28;20046;-91
2022/05/06 13:17:54;;;;;;;8.10;3.25;;;22.50;57.10;;;;;;4983248;28;20045;-91
2022/05/06 13:20:20;;;;;;;7.80;2.95;;;22.60;59.10;;;;;;4981418;28;20042;-91
2022/05/06 13:22:45;;;;;;;7.20;2.55;;;22.60;59.60;;;;;;4983484;28;20042;-92
2022/05/06 13:25:11;;;;;;;7.13;2.75;;;22.60;59.10;;;;;;4975466;28;20125;-91